sensor_id;sensor_type;location;lat;lon;timestamp;P1;durP1;ratioP1;P2;durP2;ratioP2
2039;SDS011;1025;42.686;23.350;2023-05-10T00:00:32;6.70;;;6.20;;
2039;SDS011;1025;42.686;23.350;2023-05-10T00:02:59;6.20;;;5.73;;
2039;SDS011;1025;42.686;23.350;2023-05-10T00:05:25;6.63;;;6.13;;
2039;SDS011;1025;42.686;23.350;2023-05-10T00:07:52;10.00;;;5.60;;
2039;SDS011;1025;42.686;23.350;2023-05-10T00:10:18;7.87;;;7.27;;
2039;SDS011;1025;42.686;23.350;2023-05-10T00:12:45;7.83;;;7.20;;
2039;SDS011;1025;42.686;23.350;2023-05-10T00:15:11;8.03;;;7.33;;
2039;SDS011;1025;42.686;23.350;2023-05-10T00:17:39;11.43;;;10.60;;
2039;SDS011;1025;42.686;23.350;2023-05-10T00:20:06;9.27;;;8.43;;
2039;SDS011;1025;42.686;23.350;2023-05-10T00:22:33;9.00;;;8.10;;
2039;SDS011;1025;42.686;23.350;2023-05-10T00:24:59;11.53;;;10.53;;
2039;SDS011;1025;42.686;23.350;2023-05-10T00:27:26;8.90;;;8.20;;
2039;SDS011;1025;42.686;23.350;2023-05-10T00:29:52;10.30;;;9.40;;
2039;SDS011;1025;42.686;23.350;2023-05-10T00:32:19;10.53;;;9.63;;
2039;SDS011;1025;42.686;23.350;2023-05-10T00:34:47;9.40;;;8.60;;
2039;SDS011;1025;42.686;23.350;2023-05-10T00:37:13;10.40;;;9.50;;
2039;SDS011;1025;42.686;23.350;2023-05-10T00:39:40;9.93;;;8.97;;
2039;SDS011;1025;42.686;23.350;2023-05-10T00:42:06;11.27;;;10.37;;
2039;SDS011;1025;42.686;23.350;2023-05-10T00:44:33;9.80;;;9.10;;
2039;SDS011;1025;42.686;23.350;2023-05-10T00:46:59;10.10;;;9.30;;
2039;SDS011;1025;42.686;23.350;2023-05-10T00:49:26;10.60;;;9.73;;
2039;SDS011;1025;42.686;23.350;2023-05-10T00:51:54;11.47;;;10.40;;
2039;SDS011;1025;42.686;23.350;2023-05-10T00:54:21;11.47;;;10.47;;
2039;SDS011;1025;42.686;23.350;2023-05-10T00:56:47;11.30;;;10.40;;
2039;SDS011;1025;42.686;23.350;2023-05-10T00:59:14;10.13;;;9.13;;
2039;SDS011;1025;42.686;23.350;2023-05-10T01:01:41;10.50;;;9.60;;
2039;SDS011;1025;42.686;23.350;2023-05-10T01:04:08;12.60;;;11.50;;
2039;SDS011;1025;42.686;23.350;2023-05-10T01:06:36;12.23;;;11.13;;
2039;SDS011;1025;42.686;23.350;2023-05-10T01:09:04;12.27;;;11.17;;
2039;SDS011;1025;42.686;23.350;2023-05-10T01:11:31;10.70;;;9.80;;
2039;SDS011;1025;42.686;23.350;2023-05-10T01:13:58;10.87;;;9.87;;
2039;SDS011;1025;42.686;23.350;2023-05-10T01:16:24;9.50;;;8.70;;
2039;SDS011;1025;42.686;23.350;2023-05-10T01:18:52;9.60;;;8.80;;
2039;SDS011;1025;42.686;23.350;2023-05-10T01:21:21;11.23;;;10.27;;
2039;SDS011;1025;42.686;23.350;2023-05-10T01:23:57;9.47;;;8.67;;
2039;SDS011;1025;42.686;23.350;2023-05-10T01:26:53;9.00;;;8.30;;
2039;SDS011;1025;42.686;23.350;2023-05-10T01:29:41;9.93;;;9.03;;
2039;SDS011;1025;42.686;23.350;2023-05-10T01:32:25;9.27;;;8.57;;
2039;SDS011;1025;42.686;23.350;2023-05-10T01:34:55;8.97;;;8.27;;
2039;SDS011;1025;42.686;23.350;2023-05-10T01:37:25;8.93;;;8.23;;
2039;SDS011;1025;42.686;23.350;2023-05-10T01:39:55;9.73;;;8.97;;
2039;SDS011;1025;42.686;23.350;2023-05-10T01:42:25;10.00;;;9.00;;
2039;SDS011;1025;42.686;23.350;2023-05-10T01:44:54;10.50;;;9.60;;
2039;SDS011;1025;42.686;23.350;2023-05-10T01:47:27;9.00;;;8.30;;
2039;SDS011;1025;42.686;23.350;2023-05-10T01:49:55;11.03;;;10.20;;
2039;SDS011;1025;42.686;23.350;2023-05-10T01:55:05;9.90;;;9.20;;
2039;SDS011;1025;42.686;23.350;2023-05-10T01:57:32;6.57;;;6.07;;
2039;SDS011;1025;42.686;23.350;2023-05-10T02:00:00;8.83;;;8.13;;
2039;SDS011;1025;42.686;23.350;2023-05-10T02:02:29;7.87;;;7.30;;
2039;SDS011;1025;42.686;23.350;2023-05-10T02:04:56;6.40;;;5.90;;
2039;SDS011;1025;42.686;23.350;2023-05-10T02:07:23;9.20;;;8.50;;
2039;SDS011;1025;42.686;23.350;2023-05-10T02:09:50;8.83;;;8.23;;
2039;SDS011;1025;42.686;23.350;2023-05-10T02:12:17;8.90;;;8.20;;
2039;SDS011;1025;42.686;23.350;2023-05-10T02:14:44;9.33;;;8.53;;
2039;SDS011;1025;42.686;23.350;2023-05-10T02:17:11;8.30;;;7.70;;
2039;SDS011;1025;42.686;23.350;2023-05-10T02:19:40;7.93;;;7.23;;
2039;SDS011;1025;42.686;23.350;2023-05-10T02:22:08;7.70;;;7.20;;
2039;SDS011;1025;42.686;23.350;2023-05-10T02:24:35;8.90;;;8.10;;
2039;SDS011;1025;42.686;23.350;2023-05-10T02:27:03;6.93;;;6.40;;
2039;SDS011;1025;42.686;23.350;2023-05-10T02:29:29;7.57;;;6.93;;
2039;SDS011;1025;42.686;23.350;2023-05-10T02:31:56;7.97;;;7.20;;
2039;SDS011;1025;42.686;23.350;2023-05-10T02:34:23;7.97;;;7.30;;
2039;SDS011;1025;42.686;23.350;2023-05-10T02:36:53;7.40;;;6.90;;
2039;SDS011;1025;42.686;23.350;2023-05-10T02:39:20;6.30;;;5.80;;
2039;SDS011;1025;42.686;23.350;2023-05-10T02:41:47;6.30;;;5.90;;
2039;SDS011;1025;42.686;23.350;2023-05-10T02:44:14;6.93;;;6.37;;
2039;SDS011;1025;42.686;23.350;2023-05-10T02:46:41;6.57;;;6.07;;
2039;SDS011;1025;42.686;23.350;2023-05-10T02:49:08;6.40;;;5.80;;
2039;SDS011;1025;42.686;23.350;2023-05-10T02:51:35;5.97;;;5.57;;
2039;SDS011;1025;42.686;23.350;2023-05-10T02:54:06;5.73;;;5.33;;
2039;SDS011;1025;42.686;23.350;2023-05-10T02:56:36;6.60;;;6.10;;
2039;SDS011;1025;42.686;23.350;2023-05-10T02:59:04;5.63;;;5.23;;
2039;SDS011;1025;42.686;23.350;2023-05-10T03:01:31;8.03;;;5.73;;
2039;SDS011;1025;42.686;23.350;2023-05-10T03:03:57;5.77;;;5.27;;
2039;SDS011;1025;42.686;23.350;2023-05-10T03:06:24;7.47;;;6.80;;
2039;SDS011;1025;42.686;23.350;2023-05-10T03:08:50;7.13;;;6.53;;
2039;SDS011;1025;42.686;23.350;2023-05-10T03:11:24;6.60;;;6.00;;
2039;SDS011;1025;42.686;23.350;2023-05-10T03:13:56;6.00;;;5.50;;
2039;SDS011;1025;42.686;23.350;2023-05-10T03:16:27;6.07;;;5.57;;
2039;SDS011;1025;42.686;23.350;2023-05-10T03:18:56;6.37;;;5.77;;
2039;SDS011;1025;42.686;23.350;2023-05-10T03:21:28;5.47;;;4.97;;
2039;SDS011;1025;42.686;23.350;2023-05-10T03:23:57;6.83;;;5.43;;
2039;SDS011;1025;42.686;23.350;2023-05-10T03:26:26;7.03;;;6.43;;
2039;SDS011;1025;42.686;23.350;2023-05-10T03:28:53;5.30;;;4.80;;
2039;SDS011;1025;42.686;23.350;2023-05-10T03:31:20;6.40;;;5.90;;
2039;SDS011;1025;42.686;23.350;2023-05-10T03:33:47;4.97;;;4.57;;
2039;SDS011;1025;42.686;23.350;2023-05-10T03:36:14;5.10;;;4.70;;
2039;SDS011;1025;42.686;23.350;2023-05-10T03:38:41;6.80;;;6.20;;
2039;SDS011;1025;42.686;23.350;2023-05-10T03:41:07;5.53;;;5.13;;
2039;SDS011;1025;42.686;23.350;2023-05-10T03:43:35;4.67;;;4.10;;
2039;SDS011;1025;42.686;23.350;2023-05-10T03:46:02;5.37;;;4.87;;
2039;SDS011;1025;42.686;23.350;2023-05-10T03:48:29;5.80;;;5.30;;
2039;SDS011;1025;42.686;23.350;2023-05-10T03:50:56;5.53;;;5.10;;
2039;SDS011;1025;42.686;23.350;2023-05-10T03:53:23;6.37;;;5.07;;
2039;SDS011;1025;42.686;23.350;2023-05-10T03:55:49;6.10;;;5.70;;
2039;SDS011;1025;42.686;23.350;2023-05-10T03:58:16;5.13;;;4.73;;
2039;SDS011;1025;42.686;23.350;2023-05-10T04:00:44;5.30;;;4.90;;
2039;SDS011;1025;42.686;23.350;2023-05-10T04:03:11;6.23;;;5.63;;
2039;SDS011;1025;42.686;23.350;2023-05-10T04:05:38;4.27;;;3.97;;
2039;SDS011;1025;42.686;23.350;2023-05-10T04:08:04;5.47;;;5.07;;
2039;SDS011;1025;42.686;23.350;2023-05-10T04:10:31;4.77;;;4.30;;
2039;SDS011;1025;42.686;23.350;2023-05-10T04:12:58;5.97;;;5.47;;
2039;SDS011;1025;42.686;23.350;2023-05-10T04:15:24;6.30;;;5.70;;
2039;SDS011;1025;42.686;23.350;2023-05-10T04:17:52;5.60;;;5.10;;
2039;SDS011;1025;42.686;23.350;2023-05-10T04:20:19;5.67;;;5.27;;
2039;SDS011;1025;42.686;23.350;2023-05-10T04:22:45;6.10;;;4.80;;
2039;SDS011;1025;42.686;23.350;2023-05-10T04:25:12;7.10;;;6.50;;
2039;SDS011;1025;42.686;23.350;2023-05-10T04:27:38;6.50;;;5.90;;
2039;SDS011;1025;42.686;23.350;2023-05-10T04:30:05;9.80;;;4.87;;
2039;SDS011;1025;42.686;23.350;2023-05-10T04:32:32;6.33;;;5.80;;
2039;SDS011;1025;42.686;23.350;2023-05-10T04:35:00;5.87;;;5.47;;
2039;SDS011;1025;42.686;23.350;2023-05-10T04:37:28;6.57;;;6.03;;
2039;SDS011;1025;42.686;23.350;2023-05-10T04:39:55;7.20;;;6.53;;
2039;SDS011;1025;42.686;23.350;2023-05-10T04:42:21;6.23;;;4.87;;
2039;SDS011;1025;42.686;23.350;2023-05-10T04:44:48;5.30;;;4.80;;
2039;SDS011;1025;42.686;23.350;2023-05-10T04:47:14;5.83;;;5.33;;
2039;SDS011;1025;42.686;23.350;2023-05-10T04:49:41;6.67;;;4.70;;
2039;SDS011;1025;42.686;23.350;2023-05-10T04:52:09;5.83;;;5.33;;
2039;SDS011;1025;42.686;23.350;2023-05-10T04:54:36;6.07;;;5.67;;
2039;SDS011;1025;42.686;23.350;2023-05-10T04:57:03;5.27;;;4.30;;
2039;SDS011;1025;42.686;23.350;2023-05-10T04:59:29;6.20;;;5.53;;
2039;SDS011;1025;42.686;23.350;2023-05-10T05:01:56;8.90;;;6.63;;
2039;SDS011;1025;42.686;23.350;2023-05-10T05:04:22;5.60;;;5.20;;
2039;SDS011;1025;42.686;23.350;2023-05-10T05:06:49;6.10;;;5.53;;
2039;SDS011;1025;42.686;23.350;2023-05-10T05:09:17;6.53;;;6.03;;
2039;SDS011;1025;42.686;23.350;2023-05-10T05:11:43;8.73;;;6.00;;
2039;SDS011;1025;42.686;23.350;2023-05-10T05:14:10;6.47;;;5.97;;
2039;SDS011;1025;42.686;23.350;2023-05-10T05:16:36;6.87;;;5.10;;
2039;SDS011;1025;42.686;23.350;2023-05-10T05:19:03;9.80;;;7.67;;
2039;SDS011;1025;42.686;23.350;2023-05-10T05:21:29;5.20;;;4.80;;
2039;SDS011;1025;42.686;23.350;2023-05-10T05:23:57;6.57;;;6.00;;
2039;SDS011;1025;42.686;23.350;2023-05-10T05:26:25;7.33;;;6.73;;
2039;SDS011;1025;42.686;23.350;2023-05-10T05:28:52;6.27;;;5.57;;
2039;SDS011;1025;42.686;23.350;2023-05-10T05:31:19;6.93;;;6.33;;
2039;SDS011;1025;42.686;23.350;2023-05-10T05:33:46;7.63;;;6.90;;
2039;SDS011;1025;42.686;23.350;2023-05-10T05:36:12;9.20;;;8.07;;
2039;SDS011;1025;42.686;23.350;2023-05-10T05:38:39;7.47;;;6.87;;
2039;SDS011;1025;42.686;23.350;2023-05-10T05:41:05;8.07;;;7.40;;
2039;SDS011;1025;42.686;23.350;2023-05-10T05:43:33;6.07;;;5.57;;
2039;SDS011;1025;42.686;23.350;2023-05-10T05:46:00;6.60;;;5.90;;
2039;SDS011;1025;42.686;23.350;2023-05-10T05:48:26;8.40;;;6.53;;
2039;SDS011;1025;42.686;23.350;2023-05-10T05:50:54;5.97;;;5.47;;
2039;SDS011;1025;42.686;23.350;2023-05-10T05:53:21;6.77;;;6.17;;
2039;SDS011;1025;42.686;23.350;2023-05-10T05:55:50;8.00;;;7.37;;
2039;SDS011;1025;42.686;23.350;2023-05-10T05:58:17;8.40;;;7.60;;
2039;SDS011;1025;42.686;23.350;2023-05-10T06:00:45;6.50;;;5.93;;
2039;SDS011;1025;42.686;23.350;2023-05-10T06:03:11;8.50;;;7.43;;
2039;SDS011;1025;42.686;23.350;2023-05-10T06:05:38;6.30;;;5.80;;
2039;SDS011;1025;42.686;23.350;2023-05-10T06:08:04;8.30;;;7.60;;
2039;SDS011;1025;42.686;23.350;2023-05-10T06:10:31;8.50;;;7.80;;
2039;SDS011;1025;42.686;23.350;2023-05-10T06:12:58;8.43;;;6.87;;
2039;SDS011;1025;42.686;23.350;2023-05-10T06:15:24;14.80;;;7.13;;
2039;SDS011;1025;42.686;23.350;2023-05-10T06:17:52;7.80;;;7.20;;
2039;SDS011;1025;42.686;23.350;2023-05-10T06:20:19;7.30;;;5.40;;
2039;SDS011;1025;42.686;23.350;2023-05-10T06:22:46;4.90;;;4.50;;
2039;SDS011;1025;42.686;23.350;2023-05-10T06:25:13;9.23;;;7.37;;
2039;SDS011;1025;42.686;23.350;2023-05-10T06:27:39;7.63;;;7.03;;
2039;SDS011;1025;42.686;23.350;2023-05-10T06:30:07;5.10;;;4.60;;
2039;SDS011;1025;42.686;23.350;2023-05-10T06:32:34;5.13;;;4.70;;
2039;SDS011;1025;42.686;23.350;2023-05-10T06:35:02;7.40;;;6.80;;
2039;SDS011;1025;42.686;23.350;2023-05-10T06:37:28;7.20;;;6.60;;
2039;SDS011;1025;42.686;23.350;2023-05-10T06:39:55;8.30;;;7.57;;
2039;SDS011;1025;42.686;23.350;2023-05-10T06:42:21;7.57;;;6.90;;
2039;SDS011;1025;42.686;23.350;2023-05-10T06:44:50;6.30;;;5.80;;
2039;SDS011;1025;42.686;23.350;2023-05-10T06:47:17;7.70;;;7.00;;
2039;SDS011;1025;42.686;23.350;2023-05-10T06:49:43;7.30;;;5.70;;
2039;SDS011;1025;42.686;23.350;2023-05-10T06:52:11;6.33;;;5.47;;
2039;SDS011;1025;42.686;23.350;2023-05-10T06:54:38;8.10;;;7.40;;
2039;SDS011;1025;42.686;23.350;2023-05-10T06:57:04;6.23;;;5.63;;
2039;SDS011;1025;42.686;23.350;2023-05-10T06:59:31;8.60;;;6.30;;
2039;SDS011;1025;42.686;23.350;2023-05-10T07:01:58;6.50;;;5.83;;
2039;SDS011;1025;42.686;23.350;2023-05-10T07:04:24;5.40;;;4.90;;
2039;SDS011;1025;42.686;23.350;2023-05-10T07:06:51;6.27;;;5.77;;
2039;SDS011;1025;42.686;23.350;2023-05-10T07:09:19;9.87;;;5.80;;
2039;SDS011;1025;42.686;23.350;2023-05-10T07:11:46;6.03;;;4.60;;
2039;SDS011;1025;42.686;23.350;2023-05-10T07:14:12;8.63;;;5.77;;
2039;SDS011;1025;42.686;23.350;2023-05-10T07:16:39;5.83;;;5.43;;
2039;SDS011;1025;42.686;23.350;2023-05-10T07:19:05;6.13;;;5.57;;
2039;SDS011;1025;42.686;23.350;2023-05-10T07:21:32;5.20;;;4.70;;
2039;SDS011;1025;42.686;23.350;2023-05-10T07:24:00;6.93;;;6.30;;
2039;SDS011;1025;42.686;23.350;2023-05-10T07:26:27;24.30;;;8.90;;
2039;SDS011;1025;42.686;23.350;2023-05-10T07:28:54;9.60;;;7.37;;
2039;SDS011;1025;42.686;23.350;2023-05-10T07:31:21;7.60;;;6.90;;
2039;SDS011;1025;42.686;23.350;2023-05-10T07:33:47;10.63;;;7.30;;
2039;SDS011;1025;42.686;23.350;2023-05-10T07:36:14;10.17;;;7.07;;
2039;SDS011;1025;42.686;23.350;2023-05-10T07:38:40;11.07;;;10.00;;
2039;SDS011;1025;42.686;23.350;2023-05-10T07:41:07;6.63;;;6.00;;
2039;SDS011;1025;42.686;23.350;2023-05-10T07:43:35;8.00;;;6.10;;
2039;SDS011;1025;42.686;23.350;2023-05-10T07:46:01;9.50;;;7.27;;
2039;SDS011;1025;42.686;23.350;2023-05-10T07:48:28;8.00;;;7.30;;
2039;SDS011;1025;42.686;23.350;2023-05-10T07:50:54;8.20;;;7.50;;
2039;SDS011;1025;42.686;23.350;2023-05-10T07:53:21;9.23;;;8.33;;
2039;SDS011;1025;42.686;23.350;2023-05-10T07:55:49;8.77;;;8.00;;
2039;SDS011;1025;42.686;23.350;2023-05-10T07:58:16;8.70;;;7.77;;
2039;SDS011;1025;42.686;23.350;2023-05-10T08:00:44;10.10;;;9.20;;
2039;SDS011;1025;42.686;23.350;2023-05-10T08:03:11;12.23;;;11.03;;
2039;SDS011;1025;42.686;23.350;2023-05-10T08:05:37;8.63;;;7.83;;
2039;SDS011;1025;42.686;23.350;2023-05-10T08:08:04;9.07;;;8.30;;
2039;SDS011;1025;42.686;23.350;2023-05-10T08:10:30;8.27;;;7.33;;
2039;SDS011;1025;42.686;23.350;2023-05-10T08:12:57;8.70;;;8.10;;
2039;SDS011;1025;42.686;23.350;2023-05-10T08:15:23;7.93;;;7.23;;
2039;SDS011;1025;42.686;23.350;2023-05-10T08:17:51;8.23;;;7.40;;
2039;SDS011;1025;42.686;23.350;2023-05-10T08:20:18;8.23;;;7.43;;
2039;SDS011;1025;42.686;23.350;2023-05-10T08:22:45;10.93;;;8.60;;
2039;SDS011;1025;42.686;23.350;2023-05-10T08:25:12;7.93;;;7.23;;
2039;SDS011;1025;42.686;23.350;2023-05-10T08:27:39;7.67;;;6.93;;
2039;SDS011;1025;42.686;23.350;2023-05-10T08:30:06;9.77;;;8.70;;
2039;SDS011;1025;42.686;23.350;2023-05-10T08:32:32;8.57;;;7.77;;
2039;SDS011;1025;42.686;23.350;2023-05-10T08:35:01;9.27;;;7.17;;
2039;SDS011;1025;42.686;23.350;2023-05-10T08:37:29;7.20;;;6.70;;
2039;SDS011;1025;42.686;23.350;2023-05-10T08:39:57;13.37;;;10.97;;
2039;SDS011;1025;42.686;23.350;2023-05-10T08:42:23;8.67;;;7.90;;
2039;SDS011;1025;42.686;23.350;2023-05-10T08:44:52;11.87;;;10.60;;
2039;SDS011;1025;42.686;23.350;2023-05-10T08:47:19;10.10;;;9.10;;
2039;SDS011;1025;42.686;23.350;2023-05-10T08:49:47;10.93;;;9.87;;
2039;SDS011;1025;42.686;23.350;2023-05-10T08:52:15;9.73;;;8.93;;
2039;SDS011;1025;42.686;23.350;2023-05-10T08:54:42;10.30;;;9.30;;
2039;SDS011;1025;42.686;23.350;2023-05-10T08:57:09;10.10;;;9.20;;
2039;SDS011;1025;42.686;23.350;2023-05-10T08:59:36;10.57;;;9.63;;
2039;SDS011;1025;42.686;23.350;2023-05-10T09:02:04;8.37;;;7.67;;
2039;SDS011;1025;42.686;23.350;2023-05-10T09:04:31;12.33;;;10.20;;
2039;SDS011;1025;42.686;23.350;2023-05-10T09:06:58;9.93;;;9.07;;
2039;SDS011;1025;42.686;23.350;2023-05-10T09:09:26;8.37;;;7.57;;
2039;SDS011;1025;42.686;23.350;2023-05-10T09:11:53;10.13;;;9.17;;
2039;SDS011;1025;42.686;23.350;2023-05-10T09:14:20;8.10;;;7.40;;
2039;SDS011;1025;42.686;23.350;2023-05-10T09:16:47;8.30;;;7.70;;
2039;SDS011;1025;42.686;23.350;2023-05-10T09:19:13;10.77;;;9.77;;
2039;SDS011;1025;42.686;23.350;2023-05-10T09:21:40;8.60;;;7.90;;
2039;SDS011;1025;42.686;23.350;2023-05-10T09:24:07;11.73;;;8.00;;
2039;SDS011;1025;42.686;23.350;2023-05-10T09:26:35;10.10;;;9.07;;
2039;SDS011;1025;42.686;23.350;2023-05-10T09:29:02;9.73;;;8.93;;
2039;SDS011;1025;42.686;23.350;2023-05-10T09:31:43;9.07;;;8.13;;
2039;SDS011;1025;42.686;23.350;2023-05-10T09:34:09;8.73;;;8.13;;
2039;SDS011;1025;42.686;23.350;2023-05-10T09:36:36;10.50;;;9.67;;
2039;SDS011;1025;42.686;23.350;2023-05-10T09:39:02;10.77;;;9.87;;
2039;SDS011;1025;42.686;23.350;2023-05-10T09:41:29;9.83;;;9.10;;
2039;SDS011;1025;42.686;23.350;2023-05-10T09:43:57;11.83;;;10.67;;
2039;SDS011;1025;42.686;23.350;2023-05-10T09:46:23;11.17;;;10.20;;
2039;SDS011;1025;42.686;23.350;2023-05-10T09:48:50;11.03;;;10.00;;
2039;SDS011;1025;42.686;23.350;2023-05-10T09:51:19;9.37;;;8.60;;
2039;SDS011;1025;42.686;23.350;2023-05-10T09:53:46;11.90;;;10.73;;
2039;SDS011;1025;42.686;23.350;2023-05-10T09:56:18;11.43;;;9.50;;
2039;SDS011;1025;42.686;23.350;2023-05-10T09:59:03;7.93;;;7.33;;
2039;SDS011;1025;42.686;23.350;2023-05-10T10:01:29;8.37;;;7.47;;
2039;SDS011;1025;42.686;23.350;2023-05-10T10:03:56;8.83;;;8.13;;
2039;SDS011;1025;42.686;23.350;2023-05-10T10:06:23;4.73;;;4.43;;
2039;SDS011;1025;42.686;23.350;2023-05-10T10:08:50;8.07;;;7.47;;
2039;SDS011;1025;42.686;23.350;2023-05-10T10:11:16;10.57;;;9.00;;
2039;SDS011;1025;42.686;23.350;2023-05-10T10:13:43;7.77;;;7.07;;
2039;SDS011;1025;42.686;23.350;2023-05-10T10:16:11;6.53;;;6.13;;
2039;SDS011;1025;42.686;23.350;2023-05-10T10:18:38;6.83;;;6.23;;
2039;SDS011;1025;42.686;23.350;2023-05-10T10:21:05;10.23;;;7.30;;
2039;SDS011;1025;42.686;23.350;2023-05-10T10:23:32;7.63;;;7.03;;
2039;SDS011;1025;42.686;23.350;2023-05-10T10:25:58;7.70;;;6.10;;
2039;SDS011;1025;42.686;23.350;2023-05-10T10:28:26;7.10;;;6.53;;
2039;SDS011;1025;42.686;23.350;2023-05-10T10:30:59;9.37;;;8.37;;
2039;SDS011;1025;42.686;23.350;2023-05-10T10:33:39;6.20;;;5.70;;
2039;SDS011;1025;42.686;23.350;2023-05-10T10:36:06;6.63;;;6.13;;
2039;SDS011;1025;42.686;23.350;2023-05-10T10:38:37;7.10;;;6.50;;
2039;SDS011;1025;42.686;23.350;2023-05-10T10:41:09;8.90;;;8.00;;
2039;SDS011;1025;42.686;23.350;2023-05-10T10:43:35;9.30;;;7.37;;
2039;SDS011;1025;42.686;23.350;2023-05-10T10:46:09;7.67;;;7.17;;
2039;SDS011;1025;42.686;23.350;2023-05-10T10:48:37;7.37;;;6.03;;
2039;SDS011;1025;42.686;23.350;2023-05-10T10:51:03;6.90;;;6.40;;
2039;SDS011;1025;42.686;23.350;2023-05-10T10:53:30;6.37;;;5.47;;
2039;SDS011;1025;42.686;23.350;2023-05-10T10:56:06;7.09;;;6.50;;
2039;SDS011;1025;42.686;23.350;2023-05-10T10:58:34;5.90;;;5.50;;
2039;SDS011;1025;42.686;23.350;2023-05-10T11:01:11;6.63;;;5.43;;
2039;SDS011;1025;42.686;23.350;2023-05-10T11:03:39;5.43;;;5.13;;
2039;SDS011;1025;42.686;23.350;2023-05-10T11:06:06;6.83;;;6.23;;
2039;SDS011;1025;42.686;23.350;2023-05-10T11:08:34;6.57;;;6.07;;
2039;SDS011;1025;42.686;23.350;2023-05-10T11:11:04;6.77;;;6.27;;
2039;SDS011;1025;42.686;23.350;2023-05-10T11:13:33;6.50;;;5.70;;
2039;SDS011;1025;42.686;23.350;2023-05-10T11:16:09;6.63;;;5.97;;
2039;SDS011;1025;42.686;23.350;2023-05-10T11:18:36;7.17;;;6.40;;
2039;SDS011;1025;42.686;23.350;2023-05-10T11:21:04;6.57;;;6.07;;
2039;SDS011;1025;42.686;23.350;2023-05-10T11:23:31;6.17;;;5.67;;
2039;SDS011;1025;42.686;23.350;2023-05-10T11:25:58;7.73;;;6.17;;
2039;SDS011;1025;42.686;23.350;2023-05-10T11:28:25;6.60;;;6.07;;
2039;SDS011;1025;42.686;23.350;2023-05-10T11:30:52;7.13;;;6.07;;
2039;SDS011;1025;42.686;23.350;2023-05-10T11:33:19;6.50;;;6.00;;
2039;SDS011;1025;42.686;23.350;2023-05-10T11:35:46;7.17;;;6.47;;
2039;SDS011;1025;42.686;23.350;2023-05-10T11:38:14;5.80;;;5.20;;
2039;SDS011;1025;42.686;23.350;2023-05-10T11:40:41;7.47;;;6.50;;
2039;SDS011;1025;42.686;23.350;2023-05-10T11:43:08;6.07;;;5.67;;
2039;SDS011;1025;42.686;23.350;2023-05-10T11:45:35;8.40;;;6.90;;
2039;SDS011;1025;42.686;23.350;2023-05-10T11:48:02;8.20;;;6.27;;
2039;SDS011;1025;42.686;23.350;2023-05-10T11:50:28;6.73;;;6.13;;
2039;SDS011;1025;42.686;23.350;2023-05-10T11:52:55;9.13;;;6.10;;
2039;SDS011;1025;42.686;23.350;2023-05-10T11:55:25;6.10;;;5.70;;
2039;SDS011;1025;42.686;23.350;2023-05-10T11:57:51;7.03;;;6.40;;
2039;SDS011;1025;42.686;23.350;2023-05-10T12:00:18;6.50;;;6.00;;
2039;SDS011;1025;42.686;23.350;2023-05-10T12:02:45;8.17;;;7.43;;
2039;SDS011;1025;42.686;23.350;2023-05-10T12:05:11;6.90;;;6.40;;
2039;SDS011;1025;42.686;23.350;2023-05-10T12:07:38;7.17;;;6.50;;
2039;SDS011;1025;42.686;23.350;2023-05-10T12:10:05;8.20;;;6.10;;
2039;SDS011;1025;42.686;23.350;2023-05-10T12:12:37;6.00;;;5.50;;
2039;SDS011;1025;42.686;23.350;2023-05-10T12:15:05;7.43;;;6.90;;
2039;SDS011;1025;42.686;23.350;2023-05-10T12:17:32;7.07;;;6.37;;
2039;SDS011;1025;42.686;23.350;2023-05-10T12:19:59;7.60;;;6.90;;
2039;SDS011;1025;42.686;23.350;2023-05-10T12:22:38;6.80;;;6.20;;
2039;SDS011;1025;42.686;23.350;2023-05-10T12:25:06;6.93;;;6.33;;
2039;SDS011;1025;42.686;23.350;2023-05-10T12:27:32;7.73;;;7.03;;
2039;SDS011;1025;42.686;23.350;2023-05-10T12:30:01;6.67;;;5.20;;
2039;SDS011;1025;42.686;23.350;2023-05-10T12:32:37;5.27;;;4.87;;
2039;SDS011;1025;42.686;23.350;2023-05-10T12:35:03;7.60;;;7.00;;
2039;SDS011;1025;42.686;23.350;2023-05-10T12:37:30;7.40;;;6.80;;
2039;SDS011;1025;42.686;23.350;2023-05-10T12:40:00;8.17;;;7.50;;
2039;SDS011;1025;42.686;23.350;2023-05-10T12:42:27;7.27;;;6.67;;
2039;SDS011;1025;42.686;23.350;2023-05-10T12:44:54;8.03;;;7.23;;
2039;SDS011;1025;42.686;23.350;2023-05-10T12:47:22;6.97;;;6.37;;
2039;SDS011;1025;42.686;23.350;2023-05-10T12:49:49;9.47;;;8.57;;
2039;SDS011;1025;42.686;23.350;2023-05-10T12:52:16;6.30;;;5.77;;
2039;SDS011;1025;42.686;23.350;2023-05-10T12:54:42;7.33;;;6.60;;
2039;SDS011;1025;42.686;23.350;2023-05-10T12:57:09;7.40;;;6.77;;
2039;SDS011;1025;42.686;23.350;2023-05-10T12:59:35;7.67;;;7.07;;
2039;SDS011;1025;42.686;23.350;2023-05-10T13:02:02;6.63;;;6.13;;
2039;SDS011;1025;42.686;23.350;2023-05-10T13:04:30;6.40;;;5.90;;
2039;SDS011;1025;42.686;23.350;2023-05-10T13:06:56;7.43;;;6.73;;
2039;SDS011;1025;42.686;23.350;2023-05-10T13:09:23;7.37;;;6.20;;
2039;SDS011;1025;42.686;23.350;2023-05-10T13:11:51;6.87;;;6.37;;
2039;SDS011;1025;42.686;23.350;2023-05-10T13:14:18;7.90;;;7.10;;
2039;SDS011;1025;42.686;23.350;2023-05-10T13:16:45;12.53;;;7.40;;
2039;SDS011;1025;42.686;23.350;2023-05-10T13:19:12;7.17;;;6.57;;
2039;SDS011;1025;42.686;23.350;2023-05-10T13:21:40;6.87;;;6.37;;
2039;SDS011;1025;42.686;23.350;2023-05-10T13:24:07;6.50;;;5.97;;
2039;SDS011;1025;42.686;23.350;2023-05-10T13:26:33;7.27;;;6.27;;
2039;SDS011;1025;42.686;23.350;2023-05-10T13:29:01;7.00;;;6.40;;
2039;SDS011;1025;42.686;23.350;2023-05-10T13:31:28;6.50;;;5.90;;
2039;SDS011;1025;42.686;23.350;2023-05-10T13:33:55;7.23;;;6.63;;
2039;SDS011;1025;42.686;23.350;2023-05-10T13:36:21;7.33;;;6.60;;
2039;SDS011;1025;42.686;23.350;2023-05-10T13:38:49;7.97;;;6.10;;
2039;SDS011;1025;42.686;23.350;2023-05-10T13:41:16;7.73;;;6.93;;
2039;SDS011;1025;42.686;23.350;2023-05-10T13:43:42;6.50;;;5.97;;
2039;SDS011;1025;42.686;23.350;2023-05-10T13:46:09;11.97;;;7.47;;
2039;SDS011;1025;42.686;23.350;2023-05-10T13:48:35;5.47;;;5.07;;
2039;SDS011;1025;42.686;23.350;2023-05-10T13:51:02;6.10;;;5.60;;
2039;SDS011;1025;42.686;23.350;2023-05-10T13:53:29;8.30;;;6.70;;
2039;SDS011;1025;42.686;23.350;2023-05-10T13:55:57;5.77;;;5.27;;
2039;SDS011;1025;42.686;23.350;2023-05-10T13:58:23;6.60;;;6.10;;
2039;SDS011;1025;42.686;23.350;2023-05-10T14:00:50;7.83;;;6.40;;
2039;SDS011;1025;42.686;23.350;2023-05-10T14:03:16;7.73;;;6.93;;
2039;SDS011;1025;42.686;23.350;2023-05-10T14:05:43;7.20;;;6.50;;
2039;SDS011;1025;42.686;23.350;2023-05-10T14:08:10;7.13;;;6.63;;
2039;SDS011;1025;42.686;23.350;2023-05-10T14:10:38;11.23;;;9.63;;
2039;SDS011;1025;42.686;23.350;2023-05-10T14:13:06;6.60;;;6.00;;
2039;SDS011;1025;42.686;23.350;2023-05-10T14:15:33;6.90;;;6.30;;
2039;SDS011;1025;42.686;23.350;2023-05-10T14:17:59;6.00;;;5.50;;
2039;SDS011;1025;42.686;23.350;2023-05-10T14:20:26;7.03;;;6.43;;
2039;SDS011;1025;42.686;23.350;2023-05-10T14:22:52;6.80;;;6.20;;
2039;SDS011;1025;42.686;23.350;2023-05-10T14:25:19;7.53;;;6.83;;
2039;SDS011;1025;42.686;23.350;2023-05-10T14:27:46;7.00;;;6.40;;
2039;SDS011;1025;42.686;23.350;2023-05-10T14:30:14;5.67;;;5.27;;
2039;SDS011;1025;42.686;23.350;2023-05-10T14:32:42;7.53;;;6.83;;
2039;SDS011;1025;42.686;23.350;2023-05-10T14:35:09;8.17;;;7.33;;
2039;SDS011;1025;42.686;23.350;2023-05-10T14:37:35;7.60;;;6.93;;
2039;SDS011;1025;42.686;23.350;2023-05-10T14:40:02;6.93;;;6.03;;
2039;SDS011;1025;42.686;23.350;2023-05-10T14:42:29;7.10;;;6.50;;
2039;SDS011;1025;42.686;23.350;2023-05-10T14:44:56;15.20;;;6.70;;
2039;SDS011;1025;42.686;23.350;2023-05-10T14:47:24;9.93;;;6.00;;
2039;SDS011;1025;42.686;23.350;2023-05-10T14:49:50;7.97;;;6.23;;
2039;SDS011;1025;42.686;23.350;2023-05-10T14:52:17;6.83;;;6.33;;
2039;SDS011;1025;42.686;23.350;2023-05-10T14:54:43;7.43;;;6.80;;
2039;SDS011;1025;42.686;23.350;2023-05-10T14:57:10;8.43;;;7.57;;
2039;SDS011;1025;42.686;23.350;2023-05-10T14:59:36;7.10;;;6.40;;
2039;SDS011;1025;42.686;23.350;2023-05-10T15:02:03;7.20;;;6.50;;